createdAt,value
2018-07-21T00:01:28.007Z,42.00
2018-07-21T00:03:56.805Z,42.00
2018-07-21T00:06:24.871Z,42.00
2018-07-21T00:08:53.033Z,41.90
2018-07-21T00:13:49.076Z,41.80
2018-07-21T00:18:45.070Z,41.70
2018-07-21T00:21:13.165Z,41.60
2018-07-21T00:23:41.251Z,41.60
2018-07-21T00:26:09.367Z,41.60
2018-07-21T00:28:37.455Z,41.60
2018-07-21T00:31:05.538Z,41.50
2018-07-21T00:33:33.621Z,41.60
2018-07-21T00:36:01.709Z,41.50
2018-07-21T00:38:29.823Z,41.50
2018-07-21T00:40:57.896Z,41.30
2018-07-21T00:43:25.988Z,41.30
2018-07-21T00:45:54.094Z,41.30
2018-07-21T00:48:22.172Z,41.20
2018-07-21T00:50:50.255Z,41.10
2018-07-21T00:53:18.340Z,41.10
2018-07-21T00:55:46.424Z,41.20
2018-07-21T00:58:14.695Z,41.10
2018-07-21T01:00:42.736Z,41.10
2018-07-21T01:03:10.822Z,40.90
2018-07-21T01:05:38.920Z,40.90
2018-07-21T01:08:07.016Z,40.90
2018-07-21T01:10:35.091Z,40.90
2018-07-21T01:13:03.180Z,40.80
2018-07-21T01:15:31.284Z,40.80
2018-07-21T01:17:59.396Z,40.90
2018-07-21T01:20:27.506Z,40.80
2018-07-21T01:22:55.638Z,40.60
2018-07-21T01:25:23.727Z,40.60
2018-07-21T01:27:52.019Z,40.60
2018-07-21T01:37:43.743Z,40.40
2018-07-21T01:40:11.873Z,40.30
2018-07-21T01:42:39.976Z,40.30
2018-07-21T01:45:08.084Z,40.40
2018-07-21T01:47:36.168Z,40.40
2018-07-21T01:50:04.472Z,40.30
2018-07-21T01:52:33.031Z,40.30
2018-07-21T01:55:01.118Z,40.30
2018-07-21T01:57:29.310Z,40.20
2018-07-21T01:59:57.413Z,40.20
2018-07-21T02:02:25.505Z,40.20
2018-07-21T02:04:53.620Z,40.20
2018-07-21T02:07:21.717Z,40.20
2018-07-21T02:09:49.822Z,40.30
2018-07-21T02:12:17.936Z,40.20
2018-07-21T02:14:46.048Z,40.20
2018-07-21T02:17:14.139Z,40.30
2018-07-21T02:19:42.396Z,40.10
2018-07-21T02:22:10.484Z,40.10
2018-07-21T02:24:38.585Z,40.20
2018-07-21T02:27:06.900Z,40.20
2018-07-21T02:29:34.988Z,39.80
2018-07-21T02:32:03.104Z,40.10
2018-07-21T02:34:31.224Z,40.20
2018-07-21T02:36:59.330Z,40.20
2018-07-21T02:39:27.447Z,40.20
2018-07-21T02:41:55.567Z,40.30
2018-07-21T02:44:23.691Z,40.20
2018-07-21T02:46:51.784Z,40.20
2018-07-21T02:49:19.896Z,40.20
2018-07-21T02:51:48.001Z,40.20
2018-07-21T02:54:16.116Z,40.20
2018-07-21T02:59:12.115Z,40.20
2018-07-21T03:01:40.209Z,40.20
2018-07-21T03:06:36.226Z,40.10
2018-07-21T03:09:07.096Z,40.10
2018-07-21T03:16:30.952Z,40.10
2018-07-21T03:18:59.039Z,40.10
2018-07-21T03:21:27.136Z,40.10
2018-07-21T03:23:55.272Z,40.10
2018-07-21T03:26:23.429Z,40.10
2018-07-21T03:28:51.556Z,40.10
2018-07-21T03:31:19.645Z,40.10
2018-07-21T03:33:47.723Z,40.00
2018-07-21T03:36:15.841Z,40.10
2018-07-21T03:38:43.920Z,40.00
2018-07-21T03:46:08.164Z,40.00
2018-07-21T03:48:36.448Z,39.90
2018-07-21T03:51:04.556Z,39.90
2018-07-21T03:53:32.685Z,39.80
2018-07-21T03:56:00.775Z,39.90
2018-07-21T04:00:56.755Z,39.80
2018-07-21T04:03:24.872Z,39.80
2018-07-21T04:05:52.991Z,39.80
2018-07-21T04:08:21.107Z,39.70
2018-07-21T04:10:49.240Z,39.60
2018-07-21T04:13:17.343Z,39.60
2018-07-21T04:15:45.456Z,39.60
2018-07-21T04:18:13.535Z,39.60
2018-07-21T04:20:41.630Z,39.60
2018-07-21T04:23:09.729Z,39.50
2018-07-21T04:25:37.832Z,39.50
2018-07-21T04:33:01.700Z,39.80
2018-07-21T04:35:29.793Z,39.40
2018-07-21T04:37:57.888Z,39.40
2018-07-21T04:40:26.161Z,39.50
2018-07-21T04:42:54.277Z,39.40
2018-07-21T04:45:22.418Z,39.40
2018-07-21T04:50:18.444Z,39.40
2018-07-21T04:52:46.563Z,39.30
2018-07-21T04:55:14.677Z,39.40
2018-07-21T04:57:42.771Z,39.30
2018-07-21T05:02:38.853Z,39.20
2018-07-21T05:05:06.964Z,39.10
2018-07-21T05:07:35.061Z,39.00
2018-07-21T05:12:31.112Z,39.00
2018-07-21T05:14:59.212Z,38.70
2018-07-21T05:17:27.304Z,38.70
2018-07-21T05:19:56.221Z,38.70
2018-07-21T05:22:24.345Z,38.50
2018-07-21T05:24:52.443Z,38.40
2018-07-21T05:27:20.557Z,38.40
2018-07-21T05:34:44.466Z,38.20
2018-07-21T05:37:12.549Z,38.20
2018-07-21T05:42:09.005Z,38.20
2018-07-21T05:44:37.099Z,38.20
2018-07-21T05:47:05.225Z,38.30
2018-07-21T05:54:29.090Z,38.00
2018-07-21T05:56:57.196Z,38.00
2018-07-21T05:59:25.320Z,38.10
2018-07-21T06:01:53.429Z,38.00
2018-07-21T06:04:21.560Z,37.80
2018-07-21T06:06:49.687Z,37.90
2018-07-21T06:09:17.818Z,37.80
2018-07-21T06:11:45.951Z,37.90
2018-07-21T06:14:14.068Z,37.90
2018-07-21T06:16:42.187Z,37.90
2018-07-21T06:19:10.268Z,37.80
2018-07-21T06:24:06.348Z,37.70
2018-07-21T06:26:34.468Z,37.60
2018-07-21T06:29:02.551Z,37.50
2018-07-21T06:36:26.420Z,37.40
2018-07-21T06:38:54.512Z,37.30
2018-07-21T06:41:22.656Z,37.20
2018-07-21T06:43:50.772Z,37.20
2018-07-21T06:46:18.898Z,37.20
2018-07-21T06:48:47.032Z,37.00
2018-07-21T06:51:15.131Z,36.90
2018-07-21T06:53:43.375Z,36.70
2018-07-21T06:56:11.496Z,36.70
2018-07-21T06:58:39.596Z,36.80
2018-07-21T07:01:07.795Z,36.70
2018-07-21T07:03:35.955Z,36.70
2018-07-21T07:06:04.051Z,36.70
2018-07-21T07:08:32.159Z,36.70
2018-07-21T07:11:00.247Z,36.70
2018-07-21T07:13:28.336Z,36.60
2018-07-21T07:15:56.419Z,36.60
2018-07-21T07:18:24.543Z,36.60
2018-07-21T07:20:52.636Z,36.50
2018-07-21T07:23:20.741Z,36.60
2018-07-21T07:25:49.044Z,36.50
2018-07-21T07:28:17.151Z,36.30
2018-07-21T07:30:45.282Z,36.40
2018-07-21T07:33:13.419Z,36.40
2018-07-21T07:35:41.504Z,36.40
2018-07-21T07:38:09.643Z,36.30
2018-07-21T07:40:37.760Z,36.30
2018-07-21T07:43:06.251Z,36.20
2018-07-21T07:45:34.343Z,36.30
2018-07-21T07:48:02.472Z,36.30
2018-07-21T07:50:30.578Z,36.30
2018-07-21T07:52:58.940Z,36.30
2018-07-21T07:55:31.619Z,36.30
2018-07-21T07:58:00.424Z,36.30
2018-07-21T08:00:28.856Z,36.30
2018-07-21T08:02:56.936Z,36.40
2018-07-21T08:05:25.058Z,36.20
2018-07-21T08:07:53.187Z,36.00
2018-07-21T08:10:21.272Z,36.20
2018-07-21T08:12:50.039Z,36.20
2018-07-21T08:15:18.353Z,36.10
2018-07-21T08:17:46.479Z,36.20
2018-07-21T08:20:14.563Z,36.20
2018-07-21T08:22:42.723Z,37.00
2018-07-21T08:25:10.945Z,36.10
2018-07-21T08:30:08.103Z,35.80
2018-07-21T08:32:36.217Z,35.60
2018-07-21T08:35:04.688Z,35.50
2018-07-21T08:37:33.035Z,35.30
2018-07-21T08:40:01.108Z,35.30
2018-07-21T08:42:29.267Z,35.10
2018-07-21T08:44:57.378Z,34.90
2018-07-21T08:47:25.475Z,34.80
2018-07-21T08:49:53.628Z,35.10
2018-07-21T08:52:21.691Z,35.10
2018-07-21T08:54:49.958Z,34.90
2018-07-21T08:57:18.060Z,35.10
2018-07-21T08:59:46.184Z,34.90
2018-07-21T09:02:14.340Z,34.70
2018-07-21T09:04:42.460Z,34.70
2018-07-21T09:12:06.384Z,34.60
2018-07-21T09:14:34.531Z,34.60
2018-07-21T09:21:58.505Z,34.40
2018-07-21T09:24:26.604Z,34.20
2018-07-21T09:26:54.747Z,34.10
2018-07-21T09:29:22.843Z,34.10
2018-07-21T09:31:50.945Z,34.10
2018-07-21T09:36:46.969Z,34.10
2018-07-21T09:39:15.077Z,33.90
2018-07-21T09:41:43.379Z,33.80
2018-07-21T09:44:11.492Z,33.70
2018-07-21T09:46:39.623Z,33.80
2018-07-21T09:49:07.880Z,33.60
2018-07-21T09:51:35.997Z,33.50
2018-07-21T09:54:04.137Z,33.50
2018-07-21T09:56:32.246Z,33.50
2018-07-21T09:59:00.381Z,33.50
2018-07-21T10:01:28.549Z,33.40
2018-07-21T10:03:56.595Z,33.30
2018-07-21T10:06:24.695Z,32.70
2018-07-21T10:08:52.819Z,33.00
2018-07-21T10:11:20.908Z,33.00
2018-07-21T10:13:49.244Z,32.90
2018-07-21T10:16:17.527Z,33.00
2018-07-21T10:18:45.733Z,33.00
2018-07-21T10:21:13.864Z,32.80
2018-07-21T10:23:42.070Z,32.60
2018-07-21T10:26:15.791Z,32.20
2018-07-21T10:31:17.719Z,31.40
2018-07-21T10:33:45.857Z,31.20
2018-07-21T10:36:14.284Z,31.20
2018-07-21T10:38:42.460Z,31.40
2018-07-21T10:41:10.714Z,31.50
2018-07-21T10:43:38.888Z,31.40
2018-07-21T10:46:07.387Z,32.00
2018-07-21T10:48:35.809Z,31.60
2018-07-21T10:51:04.048Z,31.60
2018-07-21T10:53:32.143Z,31.70
2018-07-21T10:56:00.311Z,31.70
2018-07-21T10:58:28.437Z,31.50
2018-07-21T11:00:56.561Z,31.20
2018-07-21T11:03:24.649Z,31.20
2018-07-21T11:05:52.803Z,31.10
2018-07-21T11:08:20.943Z,30.50
2018-07-21T11:10:49.036Z,30.50
2018-07-21T11:13:17.312Z,30.50
2018-07-21T11:15:45.448Z,30.30
2018-07-21T11:18:13.651Z,30.10
2018-07-21T11:20:41.788Z,29.90
2018-07-21T11:23:09.885Z,30.00
2018-07-21T11:25:37.976Z,30.00
2018-07-21T11:28:06.099Z,30.00
2018-07-21T11:33:02.635Z,30.00
2018-07-21T11:35:30.869Z,29.90
2018-07-21T11:37:58.913Z,29.80
2018-07-21T11:40:27.260Z,30.00
2018-07-21T11:42:55.364Z,29.90
2018-07-21T11:45:23.489Z,30.00
2018-07-21T11:47:51.612Z,30.00
2018-07-21T11:50:19.744Z,29.80
2018-07-21T11:52:47.819Z,29.50
2018-07-21T11:55:15.911Z,29.40
2018-07-21T12:00:11.880Z,29.30
2018-07-21T12:02:40.142Z,29.30
2018-07-21T12:05:08.352Z,29.20
2018-07-21T12:07:37.634Z,29.20
2018-07-21T12:10:05.763Z,29.20
2018-07-21T12:12:33.904Z,29.20
2018-07-21T12:15:01.996Z,29.20
2018-07-21T12:17:30.112Z,29.20
2018-07-21T12:19:58.225Z,29.00
2018-07-21T12:22:26.304Z,29.00
2018-07-21T12:24:54.398Z,29.00
2018-07-21T12:27:22.537Z,29.10
2018-07-21T12:29:52.480Z,29.10
2018-07-21T12:32:20.591Z,29.30
2018-07-21T12:34:48.720Z,29.40
2018-07-21T12:37:16.796Z,29.40
2018-07-21T12:39:44.974Z,29.30
2018-07-21T12:42:13.072Z,29.00
2018-07-21T12:44:41.181Z,28.60
2018-07-21T12:47:09.337Z,28.40
2018-07-21T12:49:37.444Z,28.10
2018-07-21T12:52:06.128Z,28.00
2018-07-21T12:54:34.329Z,28.20
2018-07-21T12:57:02.450Z,28.10
2018-07-21T12:59:30.579Z,28.30
2018-07-21T13:01:58.657Z,28.50
2018-07-21T13:06:54.677Z,28.40
2018-07-21T13:09:22.764Z,28.50
2018-07-21T13:11:50.848Z,28.30
2018-07-21T13:14:18.996Z,27.90
2018-07-21T13:16:47.076Z,27.60
2018-07-21T13:19:15.322Z,27.40
2018-07-21T13:21:43.436Z,27.40
2018-07-21T13:24:11.605Z,27.30
2018-07-21T13:29:07.653Z,27.10
2018-07-21T13:31:35.807Z,23.70
2018-07-21T13:34:04.120Z,24.10
2018-07-21T13:36:32.311Z,23.60
2018-07-21T13:39:00.421Z,22.80
2018-07-21T13:41:28.542Z,22.60
2018-07-21T13:43:57.154Z,22.80
2018-07-21T13:46:25.279Z,22.30
2018-07-21T13:48:53.404Z,21.40
2018-07-21T13:51:21.588Z,21.80
2018-07-21T13:53:49.733Z,22.50
2018-07-21T13:56:17.873Z,22.50
2018-07-21T13:58:45.991Z,22.80
2018-07-21T14:01:14.149Z,23.20
2018-07-21T14:03:42.264Z,23.70
2018-07-21T14:06:10.396Z,23.90
2018-07-21T14:11:13.893Z,24.40
2018-07-21T14:13:42.092Z,24.60
2018-07-21T14:16:12.504Z,24.60
2018-07-21T14:18:40.640Z,24.40
2018-07-21T14:21:08.857Z,25.50
2018-07-21T14:23:36.974Z,25.10
2018-07-21T14:26:05.191Z,24.20
2018-07-21T14:28:33.295Z,25.20
2018-07-21T14:31:01.423Z,24.10
2018-07-21T14:33:29.663Z,24.30
2018-07-21T14:35:57.894Z,25.10
2018-07-21T14:38:25.899Z,24.40
2018-07-21T14:40:53.996Z,23.20
2018-07-21T14:43:22.095Z,23.60
2018-07-21T14:45:50.197Z,24.10
2018-07-21T14:48:18.315Z,24.50
2018-07-21T14:50:46.620Z,25.20
2018-07-21T15:00:42.020Z,25.20
2018-07-21T15:03:10.132Z,25.10
2018-07-21T15:05:38.218Z,24.90
2018-07-21T15:08:06.352Z,25.10
2018-07-21T15:13:06.019Z,25.00
2018-07-21T15:18:02.525Z,25.00
2018-07-21T15:20:30.655Z,25.60
2018-07-21T15:22:59.015Z,26.10
2018-07-21T15:25:27.103Z,26.00
2018-07-21T15:27:55.264Z,26.10
2018-07-21T15:30:23.347Z,25.80
2018-07-21T15:32:51.456Z,26.00
2018-07-21T15:35:19.588Z,26.60
2018-07-21T15:37:47.751Z,27.00
2018-07-21T15:40:15.907Z,27.20
2018-07-21T15:42:43.944Z,27.40
2018-07-21T15:45:12.048Z,27.90
2018-07-21T15:47:40.165Z,27.70
2018-07-21T15:50:08.232Z,27.00
2018-07-21T15:52:36.404Z,27.40
2018-07-21T15:55:04.589Z,27.40
2018-07-21T15:57:32.961Z,27.50
2018-07-21T16:00:04.819Z,27.90
2018-07-21T16:07:28.740Z,28.40
2018-07-21T16:09:56.839Z,28.70
2018-07-21T16:12:24.971Z,28.60
2018-07-21T16:14:53.150Z,28.70
2018-07-21T16:17:21.573Z,28.80
2018-07-21T16:19:49.661Z,28.70
2018-07-21T16:22:17.846Z,29.00
2018-07-21T16:24:45.922Z,28.90
2018-07-21T16:27:14.056Z,28.70
2018-07-21T16:29:42.148Z,28.40
2018-07-21T16:32:12.328Z,28.50
2018-07-21T16:34:41.371Z,28.50
2018-07-21T16:44:34.267Z,28.70
2018-07-21T16:47:03.406Z,28.80
2018-07-21T16:49:31.592Z,28.90
2018-07-21T16:51:59.880Z,29.20
2018-07-21T16:54:27.989Z,29.30
2018-07-21T16:56:56.139Z,29.30
2018-07-21T16:59:24.295Z,29.40
2018-07-21T17:01:52.479Z,29.60
2018-07-21T17:06:48.757Z,29.20
2018-07-21T17:09:16.931Z,29.40
2018-07-21T17:11:45.148Z,29.50
2018-07-21T17:14:13.420Z,29.90
2018-07-21T17:16:41.535Z,29.80
2018-07-21T17:19:09.677Z,30.00
2018-07-21T17:21:37.780Z,30.20
2018-07-21T17:26:34.067Z,30.60
2018-07-21T17:29:02.197Z,30.30
2018-07-21T17:31:30.320Z,30.30
2018-07-21T17:33:58.421Z,30.50
2018-07-21T17:36:26.597Z,30.60
2018-07-21T17:38:54.946Z,30.80
2018-07-21T17:41:24.239Z,31.30
2018-07-21T17:43:52.344Z,31.10
2018-07-21T17:46:20.496Z,31.40
2018-07-21T17:48:48.938Z,31.50
2018-07-21T17:51:17.133Z,31.50
2018-07-21T17:53:45.281Z,31.40
2018-07-21T17:56:13.388Z,31.80
2018-07-21T17:58:41.763Z,31.50
2018-07-21T18:01:09.902Z,31.20
2018-07-21T18:06:06.020Z,31.40
2018-07-21T18:08:34.288Z,31.30
2018-07-21T18:11:02.627Z,31.60
2018-07-21T18:13:31.344Z,32.30
2018-07-21T18:15:59.687Z,32.70
2018-07-21T18:18:27.800Z,33.00
2018-07-21T18:20:55.876Z,33.00
2018-07-21T18:23:24.029Z,32.60
2018-07-21T18:25:53.384Z,32.80
2018-07-21T18:30:49.574Z,33.40
2018-07-21T18:33:17.675Z,33.70
2018-07-21T18:35:46.221Z,33.80
2018-07-21T18:38:14.593Z,34.20
2018-07-21T18:40:42.882Z,34.20
2018-07-21T18:43:11.082Z,34.60
2018-07-21T18:45:40.596Z,34.50
2018-07-21T18:48:08.829Z,34.50
2018-07-21T18:50:36.916Z,35.10
2018-07-21T18:53:05.107Z,35.50
2018-07-21T18:55:38.261Z,35.60
2018-07-21T18:58:06.352Z,35.60
2018-07-21T19:00:34.547Z,36.00
2018-07-21T19:03:02.756Z,36.20
2018-07-21T19:05:30.967Z,36.30
2018-07-21T19:08:01.773Z,36.30
2018-07-21T19:10:30.707Z,36.60
2018-07-21T19:12:59.177Z,36.60
2018-07-21T19:15:32.802Z,37.20
2018-07-21T19:18:00.927Z,37.30
2018-07-21T19:20:34.870Z,37.60
2018-07-21T19:23:03.074Z,37.60
2018-07-21T19:25:36.499Z,37.40
2018-07-21T19:28:04.637Z,37.70
2018-07-21T19:30:32.793Z,38.00
2018-07-21T19:33:01.520Z,38.10
2018-07-21T19:35:30.862Z,38.30
2018-07-21T19:37:59.018Z,38.50
2018-07-21T19:40:27.142Z,39.00
2018-07-21T19:42:55.254Z,39.20
2018-07-21T19:45:23.364Z,39.30
2018-07-21T19:47:51.570Z,39.30
2018-07-21T19:50:19.584Z,39.20
2018-07-21T19:52:47.744Z,39.20
2018-07-21T19:55:15.860Z,39.30
2018-07-21T19:57:43.956Z,39.20
2018-07-21T20:00:12.045Z,39.20
2018-07-21T20:02:40.135Z,39.40
2018-07-21T20:05:08.275Z,39.30
2018-07-21T20:07:36.387Z,39.40
2018-07-21T20:10:04.947Z,39.20
2018-07-21T20:12:33.028Z,39.30
2018-07-21T20:15:01.158Z,39.20
2018-07-21T20:17:29.324Z,39.00
2018-07-21T20:19:57.452Z,39.20
2018-07-21T20:22:25.539Z,39.00
2018-07-21T20:24:53.646Z,39.10
2018-07-21T20:27:21.733Z,38.90
2018-07-21T20:29:49.884Z,39.10
2018-07-21T20:32:18.071Z,39.10
2018-07-21T20:34:46.168Z,39.30
2018-07-21T20:37:14.275Z,39.30
2018-07-21T20:39:42.484Z,39.40
2018-07-21T20:42:10.625Z,39.70
2018-07-21T20:44:38.751Z,39.60
2018-07-21T20:47:06.900Z,39.40
2018-07-21T20:49:35.791Z,39.70
2018-07-21T20:52:04.012Z,39.70
2018-07-21T20:54:32.108Z,39.80
2018-07-21T20:57:00.274Z,39.90
2018-07-21T20:59:28.416Z,40.10
2018-07-21T21:01:56.499Z,40.30
2018-07-21T21:04:24.684Z,40.40
2018-07-21T21:06:52.951Z,40.10
2018-07-21T21:09:21.100Z,40.10
2018-07-21T21:11:49.172Z,40.20
2018-07-21T21:14:17.344Z,40.30
2018-07-21T21:16:45.554Z,40.40
2018-07-21T21:19:13.706Z,40.60
2018-07-21T21:21:41.862Z,40.80
2018-07-21T21:24:10.308Z,41.00
2018-07-21T21:26:38.453Z,41.20
2018-07-21T21:29:06.729Z,41.50
2018-07-21T21:31:34.817Z,41.60
2018-07-21T21:34:03.120Z,41.60
2018-07-21T21:36:31.327Z,41.60
2018-07-21T21:38:59.429Z,41.60
2018-07-21T21:41:27.552Z,41.60
2018-07-21T21:43:55.640Z,41.70
2018-07-21T21:46:23.748Z,41.70
2018-07-21T21:48:51.840Z,41.70
2018-07-21T21:51:19.945Z,41.50
2018-07-21T21:53:48.021Z,41.60
2018-07-21T21:56:16.195Z,41.90
2018-07-21T21:58:44.537Z,42.10
2018-07-21T22:01:13.409Z,42.20
2018-07-21T22:03:41.607Z,41.90
2018-07-21T22:06:09.759Z,42.00
2018-07-21T22:08:37.939Z,42.30
2018-07-21T22:11:06.057Z,42.50
2018-07-21T22:13:34.140Z,42.60
2018-07-21T22:16:02.236Z,42.80
2018-07-21T22:18:30.975Z,43.00
2018-07-21T22:20:59.011Z,43.20
2018-07-21T22:23:27.210Z,43.20
2018-07-21T22:25:55.550Z,43.30
2018-07-21T22:28:23.772Z,43.30
2018-07-21T22:30:51.884Z,43.50
2018-07-21T22:33:20.978Z,43.70
2018-07-21T22:35:55.613Z,43.80
2018-07-21T22:38:23.680Z,43.90
2018-07-21T22:40:51.766Z,43.90
2018-07-21T22:43:21.466Z,43.70
2018-07-21T22:45:49.589Z,43.30
2018-07-21T22:48:17.679Z,43.30
2018-07-21T22:50:45.783Z,43.40
2018-07-21T22:53:13.881Z,43.30
2018-07-21T22:55:41.984Z,43.50
2018-07-21T22:58:10.065Z,43.30
2018-07-21T23:00:39.581Z,43.00
2018-07-21T23:03:07.902Z,42.80
2018-07-21T23:05:36.047Z,42.60
2018-07-21T23:08:04.171Z,42.60
2018-07-21T23:10:32.290Z,42.90
2018-07-21T23:13:00.471Z,42.80
2018-07-21T23:17:56.444Z,43.40
2018-07-21T23:20:31.202Z,43.60
2018-07-21T23:22:59.320Z,43.70
2018-07-21T23:25:27.436Z,43.40
2018-07-21T23:27:55.539Z,43.20
2018-07-21T23:30:23.660Z,43.00
2018-07-21T23:32:51.812Z,43.40
2018-07-21T23:35:19.968Z,43.60
2018-07-21T23:37:48.072Z,43.50
2018-07-21T23:40:16.156Z,43.60
2018-07-21T23:42:53.123Z,43.30
2018-07-21T23:45:21.220Z,43.30
2018-07-21T23:47:49.332Z,43.30
2018-07-21T23:50:18.904Z,43.60
2018-07-21T23:52:47.017Z,44.20
2018-07-21T23:55:15.474Z,44.50
2018-07-21T23:57:43.604Z,44.70
